Time;durP1;ratioP1;P1;durP2;ratioP2;P2;SDS_P1;SDS_P2;PMS_P1;PMS_P2;Temp;Humidity;BMP_temperature;BMP_pressure;BME280_temperature;BME280_humidity;BME280_pressure;Samples;Min_cycle;Max_cycle;Signal;HPM_P1;HPM_P2
2022/07/07 00:00:28;;;;;;;17.77;14.73;;;19.10;99.90;;;;;;4952743;28;98544;-68
2022/07/07 00:02:55;;;;;;;19.60;15.52;;;19.10;99.90;;;;;;4935907;28;98549;-68
2022/07/07 00:05:22;;;;;;;15.52;12.73;;;19.10;99.90;;;;;;4952468;28;100072;-68
2022/07/07 00:07:49;;;;;;;17.38;15.68;;;19.10;99.90;;;;;;4952762;28;99862;-68
2022/07/07 00:10:18;;;;;;;16.38;13.15;;;19.10;99.90;;;;;;4953128;28;98528;-68
2022/07/07 00:12:45;;;;;;;16.25;13.15;;;19.10;99.90;;;;;;4919232;28;98532;-68
2022/07/07 00:15:12;;;;;;;15.23;13.63;;;19.10;99.90;;;;;;4935333;28;99424;-68
2022/07/07 00:17:39;;;;;;;15.93;13.60;;;19.10;99.90;;;;;;4918493;28;101656;-68
2022/07/07 00:20:07;;;;;;;13.75;11.15;;;19.10;99.90;;;;;;4935285;28;98610;-68
2022/07/07 00:22:33;;;;;;;15.88;12.32;;;19.10;99.90;;;;;;4952967;28;98317;-68
2022/07/07 00:25:00;;;;;;;15.80;13.55;;;19.10;99.90;;;;;;4952301;28;99281;-68
2022/07/07 00:27:27;;;;;;;14.38;12.88;;;19.10;99.90;;;;;;4934767;28;101664;-68
2022/07/07 00:29:54;;;;;;;17.40;12.43;;;19.10;99.90;;;;;;4934825;28;99277;-68
2022/07/07 00:32:21;;;;;;;15.98;12.02;;;19.10;99.90;;;;;;4952634;28;98517;-68
2022/07/07 00:34:48;;;;;;;15.43;13.80;;;19.10;99.90;;;;;;4952270;28;99217;-68
2022/07/07 00:37:15;;;;;;;18.02;14.20;;;19.10;99.90;;;;;;4952280;28;98966;-68
2022/07/07 00:39:42;;;;;;;14.95;13.45;;;19.10;99.90;;;;;;4952575;28;98420;-68
2022/07/07 00:42:16;;;;;;;13.00;10.82;;;19.10;99.90;;;;;;4934231;28;98546;-68
2022/07/07 00:44:43;;;;;;;13.25;11.68;;;19.20;99.90;;;;;;4951909;28;99250;-68
2022/07/07 00:47:11;;;;;;;14.55;11.90;;;19.10;99.90;;;;;;4952556;28;99140;-67
2022/07/07 00:49:40;;;;;;;17.48;13.43;;;19.10;99.90;;;;;;4952634;28;98536;-68
2022/07/07 00:52:08;;;;;;;13.02;10.88;;;19.20;99.90;;;;;;4952385;28;98499;-68
2022/07/07 00:54:35;;;;;;;14.93;13.35;;;19.20;99.90;;;;;;4952020;28;100145;-68
2022/07/07 00:57:03;;;;;;;11.95;10.75;;;19.10;99.90;;;;;;4934092;28;102602;-68
2022/07/07 00:59:52;;;;;;;15.65;14.15;;;19.10;99.90;;;;;;4952147;28;99221;-68
2022/07/07 01:02:19;;;;;;;12.98;11.15;;;19.10;99.90;;;;;;4952363;28;98496;-68
2022/07/07 01:04:46;;;;;;;13.20;11.13;;;19.10;99.90;;;;;;4951998;28;99408;-68
2022/07/07 01:07:14;;;;;;;14.35;11.10;;;19.10;99.90;;;;;;4933993;28;115170;-68
2022/07/07 01:09:43;;;;;;;13.52;11.25;;;19.10;99.90;;;;;;4952203;28;98529;-68
2022/07/07 01:12:10;;;;;;;12.93;11.57;;;19.10;99.90;;;;;;4935026;28;97808;-68
2022/07/07 01:14:38;;;;;;;10.70;9.35;;;19.10;99.90;;;;;;4934488;28;99234;-68
2022/07/07 01:17:05;;;;;;;10.35;8.65;;;19.10;99.90;;;;;;4952376;28;98891;-68
2022/07/07 01:19:32;;;;;;;10.48;9.52;;;19.00;99.90;;;;;;4934729;28;99869;-68
2022/07/07 01:22:16;;;;;;;9.40;8.25;;;19.00;99.90;;;;;;4919329;28;99168;-68
2022/07/07 01:24:43;;;;;;;10.93;9.55;;;19.10;99.90;;;;;;4952161;28;99209;-68
2022/07/07 01:27:16;;;;;;;9.15;8.20;;;19.00;99.90;;;;;;4952222;28;99871;-68
2022/07/07 01:29:49;;;;;;;10.05;7.65;;;19.10;99.90;;;;;;4918891;28;98516;-68
2022/07/07 01:32:17;;;;;;;8.57;7.67;;;19.00;99.90;;;;;;4935010;28;98597;-68
2022/07/07 01:34:45;;;;;;;10.23;8.13;;;19.00;99.90;;;;;;4934998;28;99258;-68
2022/07/07 01:37:13;;;;;;;9.88;8.85;;;19.00;99.90;;;;;;4952378;28;99065;-68
2022/07/07 01:39:41;;;;;;;10.43;8.07;;;19.00;99.90;;;;;;4934886;28;98577;-68
2022/07/07 01:42:09;;;;;;;11.27;8.68;;;19.10;99.90;;;;;;4935100;28;99069;-68
2022/07/07 01:44:38;;;;;;;11.70;10.02;;;19.10;99.90;;;;;;4934360;28;100062;-68
2022/07/07 01:47:06;;;;;;;10.25;9.25;;;19.10;99.90;;;;;;4951199;28;99721;-68
2022/07/07 01:49:33;;;;;;;12.90;8.88;;;19.10;99.90;;;;;;4918107;28;105002;-68
2022/07/07 01:52:01;;;;;;;10.23;7.68;;;19.10;99.90;;;;;;4952424;28;98448;-68
2022/07/07 01:54:29;;;;;;;9.77;8.60;;;19.10;99.90;;;;;;4920912;28;100332;-68
2022/07/07 01:56:56;;;;;;;7.88;7.18;;;19.10;99.90;;;;;;4954961;28;98988;-68
2022/07/07 01:59:23;;;;;;;7.80;5.80;;;19.10;99.90;;;;;;4937773;28;98730;-68
2022/07/07 02:01:50;;;;;;;7.40;6.72;;;19.00;99.90;;;;;;4955966;28;98562;-68
2022/07/07 02:04:17;;;;;;;7.43;5.75;;;19.00;99.90;;;;;;4955193;28;99418;-68
2022/07/07 02:06:44;;;;;;;6.93;4.95;;;19.00;99.90;;;;;;4937417;28;102516;-68
2022/07/07 02:09:12;;;;;;;4.15;3.75;;;19.00;99.90;;;;;;4937386;28;99597;-68
2022/07/07 02:11:39;;;;;;;4.97;3.97;;;19.00;99.90;;;;;;4955324;28;98531;-68
2022/07/07 02:14:06;;;;;;;8.30;5.22;;;19.00;99.90;;;;;;4954743;28;99461;-68
2022/07/07 02:16:33;;;;;;;5.00;4.55;;;18.90;99.90;;;;;;4954594;28;99120;-71
2022/07/07 02:19:03;;;;;;;5.38;4.80;;;19.00;99.90;;;;;;4937409;28;98643;-70
2022/07/07 02:21:30;;;;;;;6.22;4.65;;;18.90;99.90;;;;;;4937454;28;98552;-70
2022/07/07 02:23:57;;;;;;;7.03;5.85;;;18.90;99.90;;;;;;4954453;28;99505;-70
2022/07/07 02:26:25;;;;;;;5.40;4.95;;;18.90;99.90;;;;;;4954963;28;98976;-68
2022/07/07 02:28:53;;;;;;;6.03;4.05;;;18.90;99.90;;;;;;4937083;28;100913;-68
2022/07/07 02:31:20;;;;;;;6.13;4.50;;;18.90;99.90;;;;;;4921459;28;98521;-68
2022/07/07 02:33:47;;;;;;;4.68;4.28;;;18.90;99.90;;;;;;4954230;28;99364;-68
2022/07/07 02:36:14;;;;;;;4.10;3.10;;;18.90;99.90;;;;;;4954157;28;99537;-68
2022/07/07 02:38:41;;;;;;;4.88;3.90;;;18.90;99.90;;;;;;4937763;28;98645;-68
2022/07/07 02:41:09;;;;;;;7.30;4.13;;;18.90;99.90;;;;;;4937254;28;98700;-68
2022/07/07 02:43:36;;;;;;;5.47;3.55;;;18.90;99.90;;;;;;4936450;28;102674;-68
2022/07/07 02:46:03;;;;;;;6.10;3.13;;;18.90;99.90;;;;;;4920502;28;101781;-68
2022/07/07 02:48:31;;;;;;;6.18;4.88;;;18.90;99.90;;;;;;4954838;28;98518;-68
2022/07/07 02:50:58;;;;;;;6.43;3.72;;;18.90;99.90;;;;;;4954998;28;97796;-68
2022/07/07 02:53:25;;;;;;;4.82;3.42;;;18.80;99.90;;;;;;4936973;28;99390;-68
2022/07/07 02:56:26;;;;;;;6.95;5.05;;;18.80;99.90;;;;;;4954285;28;99133;-68
2022/07/07 02:58:55;;;;;;;3.50;3.20;;;18.90;99.90;;;;;;4954020;28;100086;-67
2022/07/07 03:01:22;;;;;;;6.63;3.53;;;18.80;99.90;;;;;;4936411;28;99224;-68
2022/07/07 03:03:49;;;;;;;4.05;3.45;;;18.80;99.90;;;;;;4954018;28;99389;-68
2022/07/07 03:06:16;;;;;;;4.97;3.65;;;18.80;99.90;;;;;;4952869;28;99086;-68
2022/07/07 03:08:43;;;;;;;5.05;3.10;;;18.80;99.90;;;;;;4954295;28;98463;-68
2022/07/07 03:11:10;;;;;;;4.25;3.30;;;18.80;99.90;;;;;;4936894;28;98984;-68
2022/07/07 03:13:37;;;;;;;6.78;4.78;;;18.80;99.90;;;;;;4953891;28;99645;-68
2022/07/07 03:16:04;;;;;;;6.57;4.70;;;18.80;99.90;;;;;;4935753;28;115116;-68
2022/07/07 03:18:32;;;;;;;4.13;3.78;;;18.80;99.90;;;;;;4954274;28;98629;-68
2022/07/07 03:20:59;;;;;;;5.85;3.92;;;18.80;99.90;;;;;;4954188;28;98881;-68
2022/07/07 03:23:26;;;;;;;4.30;3.83;;;18.80;99.90;;;;;;4953344;28;100179;-68
2022/07/07 03:25:53;;;;;;;4.97;3.50;;;18.80;99.90;;;;;;4953704;28;99673;-68
2022/07/07 03:28:20;;;;;;;5.15;3.10;;;18.80;99.90;;;;;;4936597;28;98639;-68
2022/07/07 03:30:47;;;;;;;5.28;3.70;;;18.80;99.90;;;;;;4954112;28;98532;-68
2022/07/07 03:33:14;;;;;;;5.18;3.92;;;18.80;99.90;;;;;;4953548;28;99350;-68
2022/07/07 03:35:42;;;;;;;6.75;3.35;;;18.70;99.90;;;;;;4935880;28;101543;-68
2022/07/07 03:38:08;;;;;;;3.13;2.47;;;18.70;99.90;;;;;;4936061;28;99183;-68
2022/07/07 03:40:35;;;;;;;5.43;3.53;;;18.70;99.90;;;;;;4954232;28;97847;-68
2022/07/07 03:43:03;;;;;;;8.10;3.15;;;18.70;99.90;;;;;;4953633;28;99301;-68
2022/07/07 03:45:30;;;;;;;4.15;3.13;;;18.70;99.90;;;;;;4953504;28;98948;-68
2022/07/07 03:47:57;;;;;;;7.78;3.65;;;18.70;99.90;;;;;;4936031;28;100074;-68
2022/07/07 03:50:24;;;;;;;7.60;3.40;;;18.80;99.90;;;;;;4935752;28;98708;-68
2022/07/07 03:52:51;;;;;;;4.95;2.90;;;18.80;99.90;;;;;;4935725;28;100532;-68
2022/07/07 03:55:18;;;;;;;4.78;2.80;;;18.80;99.90;;;;;;4953044;28;99283;-68
2022/07/07 03:57:45;;;;;;;8.40;4.25;;;18.80;99.90;;;;;;4953621;28;98974;-68
2022/07/07 04:00:12;;;;;;;4.32;2.70;;;18.80;99.90;;;;;;4952975;28;98549;-68
2022/07/07 04:02:41;;;;;;;5.85;2.72;;;18.80;99.90;;;;;;4953396;28;100035;-68
2022/07/07 04:05:08;;;;;;;8.40;3.97;;;18.80;99.90;;;;;;4935399;28;100264;-68
2022/07/07 04:07:35;;;;;;;9.60;3.85;;;18.80;99.90;;;;;;4953500;28;98443;-68
2022/07/07 04:10:03;;;;;;;6.13;3.30;;;18.80;99.90;;;;;;4953460;28;98848;-68
2022/07/07 04:12:30;;;;;;;7.45;4.07;;;18.90;99.90;;;;;;4952502;28;99850;-68
2022/07/07 04:14:57;;;;;;;5.65;3.25;;;18.80;99.90;;;;;;4935856;28;99488;-68
2022/07/07 04:17:24;;;;;;;5.07;2.58;;;18.70;99.90;;;;;;4952918;28;98452;-68
2022/07/07 04:19:51;;;;;;;4.78;2.85;;;18.70;99.90;;;;;;4935984;28;98498;-68
2022/07/07 04:22:18;;;;;;;5.55;3.80;;;18.70;99.90;;;;;;4935475;28;101358;-68
2022/07/07 04:24:45;;;;;;;5.80;3.15;;;18.60;99.90;;;;;;4935635;28;98972;-68
2022/07/07 04:27:12;;;;;;;5.60;2.55;;;18.60;99.90;;;;;;4935533;28;98554;-68
2022/07/07 04:29:39;;;;;;;6.18;1.83;;;18.50;99.90;;;;;;4935965;28;97807;-68
2022/07/07 04:32:07;;;;;;;7.35;3.80;;;18.50;99.90;;;;;;4918788;28;101965;-68
2022/07/07 04:34:34;;;;;;;5.53;2.28;;;18.40;99.90;;;;;;4935045;28;98958;-68
2022/07/07 04:37:01;;;;;;;2.72;1.60;;;18.40;99.90;;;;;;4952680;28;99357;-68
2022/07/07 04:39:28;;;;;;;3.75;2.13;;;18.30;99.90;;;;;;4953215;28;99023;-68
2022/07/07 04:41:55;;;;;;;4.43;1.63;;;18.40;99.90;;;;;;4935320;28;99246;-67
2022/07/07 04:44:23;;;;;;;6.30;1.77;;;18.30;99.90;;;;;;4934640;28;100202;-68
2022/07/07 04:46:49;;;;;;;5.32;1.27;;;18.40;99.90;;;;;;4935241;28;98627;-68
2022/07/07 04:49:17;;;;;;;4.93;3.03;;;18.30;99.90;;;;;;4935076;28;98501;-68
2022/07/07 04:51:46;;;;;;;5.25;1.42;;;18.40;99.90;;;;;;4952457;28;99303;-68
2022/07/07 04:54:13;;;;;;;4.03;1.65;;;18.20;99.90;;;;;;4952699;28;98961;-68
2022/07/07 04:56:41;;;;;;;7.47;2.33;;;18.10;99.90;;;;;;4935135;28;98650;-68
2022/07/07 04:59:08;;;;;;;4.60;1.40;;;18.10;99.90;;;;;;4952324;28;98573;-68
2022/07/07 05:01:35;;;;;;;3.38;1.27;;;18.20;99.90;;;;;;4951871;28;100161;-68
2022/07/07 05:04:02;;;;;;;6.90;2.78;;;18.10;99.90;;;;;;4952379;28;99801;-68
2022/07/07 05:06:29;;;;;;;8.52;2.08;;;18.10;99.90;;;;;;4952661;28;99640;-68
2022/07/07 05:08:56;;;;;;;3.67;1.52;;;18.10;99.90;;;;;;4952269;28;98504;-68
2022/07/07 05:11:23;;;;;;;3.78;1.17;;;18.10;99.90;;;;;;4952091;28;99434;-68
2022/07/07 05:13:50;;;;;;;5.55;2.03;;;18.00;99.90;;;;;;4934613;28;100104;-68
2022/07/07 05:16:17;;;;;;;5.78;1.45;;;18.10;99.90;;;;;;4934710;28;98531;-68
2022/07/07 05:18:44;;;;;;;6.90;1.90;;;18.10;99.90;;;;;;4935616;28;97920;-68
2022/07/07 05:21:11;;;;;;;7.40;1.73;;;18.20;99.90;;;;;;4952340;28;99276;-68
2022/07/07 05:23:38;;;;;;;7.68;2.95;;;18.30;99.90;;;;;;4934640;28;99062;-68
2022/07/07 05:26:06;;;;;;;3.38;2.10;;;18.40;99.90;;;;;;4952161;28;99647;-68
2022/07/07 05:28:33;;;;;;;7.47;1.75;;;18.50;99.90;;;;;;4953665;28;99468;-68
2022/07/07 05:31:02;;;;;;;7.50;2.92;;;18.50;99.50;;;;;;4955473;28;99194;-68
2022/07/07 05:33:29;;;;;;;4.70;1.40;;;18.50;99.60;;;;;;4955420;28;98820;-68
2022/07/07 05:35:56;;;;;;;7.57;2.15;;;18.60;99.50;;;;;;4955812;28;98478;-68
2022/07/07 05:38:28;;;;;;;5.30;1.85;;;18.50;99.40;;;;;;4937834;28;98670;-68
2022/07/07 05:40:54;;;;;;;5.32;2.05;;;18.50;99.50;;;;;;4955033;28;99250;-68
2022/07/07 05:43:21;;;;;;;6.75;1.70;;;18.40;99.30;;;;;;4955361;28;99134;-68
2022/07/07 05:45:48;;;;;;;5.63;2.97;;;18.40;99.50;;;;;;4938178;28;99080;-68
2022/07/07 05:48:16;;;;;;;6.07;1.67;;;18.50;99.50;;;;;;4955370;28;98621;-68
2022/07/07 05:50:43;;;;;;;8.18;2.28;;;18.50;99.20;;;;;;4954475;28;99993;-68
2022/07/07 05:53:11;;;;;;;4.93;1.67;;;18.60;99.30;;;;;;4937721;28;99800;-68
2022/07/07 05:55:38;;;;;;;3.88;1.63;;;18.70;98.90;;;;;;4921697;28;98667;-68
2022/07/07 05:58:05;;;;;;;8.20;3.05;;;18.70;98.90;;;;;;4921559;28;98623;-68
2022/07/07 06:00:32;;;;;;;7.15;2.08;;;18.70;98.70;;;;;;4936976;28;100333;-68
2022/07/07 06:02:58;;;;;;;8.20;3.78;;;18.80;98.70;;;;;;4921257;28;101638;-68
2022/07/07 06:05:26;;;;;;;6.07;3.15;;;18.80;98.60;;;;;;4955137;28;98564;-68
2022/07/07 06:07:53;;;;;;;11.30;2.72;;;18.90;98.00;;;;;;4937619;28;97817;-68
2022/07/07 06:10:20;;;;;;;5.28;1.80;;;19.00;98.00;;;;;;4921155;28;101883;-68
2022/07/07 06:12:48;;;;;;;6.80;2.35;;;19.10;98.00;;;;;;4936632;28;104826;-68
2022/07/07 06:15:17;;;;;;;7.57;3.22;;;19.00;98.00;;;;;;4937436;28;99193;-68
2022/07/07 06:17:44;;;;;;;10.02;2.60;;;19.00;98.30;;;;;;4954884;28;99448;-68
2022/07/07 06:20:31;;;;;;;8.18;3.28;;;19.00;98.40;;;;;;4939949;28;99284;-68
2022/07/07 06:22:58;;;;;;;11.00;2.80;;;18.90;98.60;;;;;;4937411;28;98947;-67
2022/07/07 06:25:26;;;;;;;6.57;2.00;;;19.00;98.50;;;;;;4955327;28;98959;-68
2022/07/07 06:27:53;;;;;;;3.95;2.00;;;19.20;98.00;;;;;;4921777;28;98491;-68
2022/07/07 06:30:20;;;;;;;5.95;2.25;;;19.30;97.90;;;;;;4936696;28;101912;-68
2022/07/07 06:32:47;;;;;;;5.45;2.25;;;19.60;97.70;;;;;;4936890;28;102068;-68
2022/07/07 06:35:14;;;;;;;9.07;2.53;;;19.80;97.40;;;;;;4954927;28;98694;-68
2022/07/07 06:37:42;;;;;;;11.60;3.42;;;20.10;97.00;;;;;;4954567;28;98604;-68
2022/07/07 06:40:09;;;;;;;8.18;2.67;;;20.10;96.80;;;;;;4934684;28;116761;-68
2022/07/07 06:42:36;;;;;;;7.53;3.13;;;20.30;96.80;;;;;;4953825;28;99672;-68
2022/07/07 06:45:10;;;;;;;;;;;20.30;96.50;;;;;;4937788;28;98585;-68
2022/07/07 06:47:37;;;;;;;6.75;2.10;;;20.20;96.90;;;;;;4955524;28;98551;-68
2022/07/07 06:50:04;;;;;;;6.15;2.28;;;20.20;96.70;;;;;;4953995;28;99448;-68
2022/07/07 06:52:31;;;;;;;9.63;2.63;;;20.40;95.90;;;;;;4954042;28;99066;-68
2022/07/07 06:54:58;;;;;;;9.00;2.50;;;20.40;95.40;;;;;;4936723;28;98557;-68
2022/07/07 06:57:25;;;;;;;5.78;1.88;;;20.40;95.60;;;;;;4937554;28;98264;-68
2022/07/07 06:59:52;;;;;;;8.93;2.75;;;20.30;95.30;;;;;;4935977;28;99213;-68
2022/07/07 07:02:19;;;;;;;6.30;3.05;;;20.40;95.40;;;;;;4936548;28;99107;-68
2022/07/07 07:04:47;;;;;;;9.10;2.78;;;20.30;94.80;;;;;;4936283;28;99267;-68
2022/07/07 07:07:14;;;;;;;6.10;1.83;;;20.30;95.20;;;;;;4954303;28;98565;-68
2022/07/07 07:09:41;;;;;;;7.32;2.10;;;20.30;94.90;;;;;;4953641;28;100681;-68
2022/07/07 07:12:08;;;;;;;5.53;2.08;;;20.30;94.70;;;;;;4953880;28;98813;-68
2022/07/07 07:14:35;;;;;;;7.15;2.03;;;20.50;95.00;;;;;;4954117;28;98560;-68
2022/07/07 07:17:02;;;;;;;10.38;2.22;;;20.70;94.10;;;;;;4953669;28;98517;-68
2022/07/07 07:19:29;;;;;;;8.40;2.65;;;21.00;94.40;;;;;;4953730;28;99415;-68
2022/07/07 07:21:56;;;;;;;5.82;2.42;;;21.00;95.20;;;;;;4953734;28;98971;-68
2022/07/07 07:24:23;;;;;;;2.13;1.15;;;20.80;95.60;;;;;;4954280;28;98745;-68
2022/07/07 07:26:50;;;;;;;6.15;2.42;;;20.70;95.20;;;;;;4936525;28;98722;-68
2022/07/07 07:29:17;;;;;;;4.68;1.42;;;20.70;95.30;;;;;;4935443;28;102478;-68
2022/07/07 07:31:44;;;;;;;4.40;1.88;;;20.60;95.10;;;;;;4953426;28;99718;-68
2022/07/07 07:34:11;;;;;;;3.53;1.50;;;20.60;94.80;;;;;;4954063;28;98607;-68
2022/07/07 07:36:38;;;;;;;5.70;2.75;;;20.60;95.00;;;;;;4936189;28;98673;-68
2022/07/07 07:39:05;;;;;;;9.82;2.97;;;20.50;95.00;;;;;;4919696;28;101787;-68
2022/07/07 07:41:32;;;;;;;8.40;2.05;;;20.60;95.00;;;;;;4953503;28;98953;-68
2022/07/07 07:43:59;;;;;;;3.80;1.30;;;20.80;95.00;;;;;;4919495;28;98629;-68
2022/07/07 07:46:26;;;;;;;5.32;1.90;;;21.20;94.70;;;;;;4936254;28;97901;-68
2022/07/07 07:48:53;;;;;;;5.40;2.33;;;21.40;93.60;;;;;;4935821;28;99248;-68
2022/07/07 07:51:20;;;;;;;3.08;0.98;;;21.50;93.50;;;;;;4934526;28;115869;-68
2022/07/07 07:53:47;;;;;;;3.10;1.23;;;21.30;93.70;;;;;;4953155;28;99179;-68
2022/07/07 07:56:14;;;;;;;4.72;2.67;;;21.20;94.40;;;;;;4953595;28;98594;-68
2022/07/07 07:58:41;;;;;;;4.32;1.83;;;21.10;94.40;;;;;;4952643;28;99652;-68
2022/07/07 08:01:08;;;;;;;2.20;1.38;;;20.90;94.40;;;;;;4952915;28;99040;-68
2022/07/07 08:03:35;;;;;;;3.72;1.10;;;20.80;94.50;;;;;;4953429;28;98550;-68
2022/07/07 08:06:02;;;;;;;1.75;1.55;;;20.80;94.40;;;;;;4953157;28;98563;-68
2022/07/07 08:08:29;;;;;;;3.15;1.40;;;20.80;94.50;;;;;;4952855;28;99238;-68
2022/07/07 08:10:56;;;;;;;3.88;1.35;;;20.80;94.50;;;;;;4953228;28;99070;-68
2022/07/07 08:13:23;;;;;;;2.15;1.05;;;21.10;94.30;;;;;;4953210;28;98628;-68
2022/07/07 08:15:51;;;;;;;1.25;0.90;;;21.30;94.10;;;;;;4953290;28;98512;-68
2022/07/07 08:18:18;;;;;;;1.25;1.02;;;21.40;93.40;;;;;;4952432;28;99978;-68
2022/07/07 08:20:45;;;;;;;2.45;1.20;;;21.30;94.50;;;;;;4952886;28;99565;-68
2022/07/07 08:23:12;;;;;;;2.22;1.75;;;21.20;95.10;;;;;;4953531;28;99121;-68
2022/07/07 08:25:39;;;;;;;2.30;1.42;;;21.00;94.90;;;;;;4935643;28;98590;-68
2022/07/07 08:28:07;;;;;;;3.30;1.95;;;21.20;94.30;;;;;;4952552;28;99292;-68
2022/07/07 08:30:34;;;;;;;3.45;0.82;;;21.70;94.00;;;;;;4935651;28;99114;-68
2022/07/07 08:33:01;;;;;;;2.08;1.10;;;22.30;92.80;;;;;;4952989;28;98518;-68
2022/07/07 08:35:28;;;;;;;2.38;1.77;;;22.70;91.50;;;;;;4953369;28;97807;-68
2022/07/07 08:37:55;;;;;;;2.17;1.17;;;23.10;91.20;;;;;;4952396;28;99337;-68
2022/07/07 08:40:22;;;;;;;1.88;0.50;;;23.60;90.60;;;;;;4952247;28;99043;-68
2022/07/07 08:42:54;;;;;;;2.60;1.37;;;23.70;91.20;;;;;;4936167;28;99386;-68
2022/07/07 08:45:21;;;;;;;2.90;1.35;;;23.60;91.90;;;;;;4935792;28;98586;-68
2022/07/07 08:47:48;;;;;;;2.05;1.17;;;23.40;92.20;;;;;;4952359;28;98547;-68
2022/07/07 08:50:15;;;;;;;2.30;2.10;;;23.10;92.70;;;;;;4919168;28;101688;-68
2022/07/07 08:52:43;;;;;;;1.58;1.48;;;22.90;92.20;;;;;;4935602;28;98508;-68
2022/07/07 08:55:15;;;;;;;1.38;1.08;;;22.90;91.50;;;;;;4935297;28;98576;-68
2022/07/07 08:57:42;;;;;;;2.95;0.88;;;23.20;91.50;;;;;;4952580;28;99274;-68
2022/07/07 09:00:10;;;;;;;2.38;1.88;;;23.20;91.20;;;;;;4951766;28;98979;-68
2022/07/07 09:02:37;;;;;;;2.83;1.27;;;23.30;90.20;;;;;;4952881;28;98871;-68
2022/07/07 09:05:05;;;;;;;2.40;0.75;;;23.60;90.00;;;;;;4921679;28;108046;-68
2022/07/07 09:07:52;;;;;;;5.80;1.40;;;24.00;90.00;;;;;;4921456;28;102946;-68
2022/07/07 09:10:33;;;;;;;1.83;0.70;;;24.10;87.50;;;;;;4937814;28;104259;-68
2022/07/07 09:13:01;;;;;;;5.03;1.27;;;23.90;88.00;;;;;;4921891;28;98587;-68
2022/07/07 09:15:38;;;;;;;3.38;1.20;;;23.30;91.00;;;;;;4938095;28;99205;-68
2022/07/07 09:18:05;;;;;;;2.13;1.05;;;22.90;92.30;;;;;;4937768;28;99261;-68
2022/07/07 09:20:35;;;;;;;3.72;1.67;;;22.30;93.10;;;;;;4955706;28;99137;-68
2022/07/07 09:23:03;;;;;;;2.75;1.63;;;21.80;94.00;;;;;;4955812;28;98548;-68
2022/07/07 09:25:30;;;;;;;8.02;1.88;;;21.40;95.20;;;;;;4956583;28;98635;-68
2022/07/07 09:28:05;;;;;;;4.07;2.38;;;21.30;95.90;;;;;;4955043;28;99231;-68
2022/07/07 09:30:37;;;;;;;3.17;1.52;;;21.20;95.60;;;;;;4955437;28;99117;-68
2022/07/07 09:33:13;;;;;;;2.25;1.88;;;21.30;95.70;;;;;;4955115;28;99301;-68
2022/07/07 09:38:31;;;;;;;5.05;1.52;;;22.10;94.70;;;;;;4955492;28;99293;-68
2022/07/07 09:41:12;;;;;;;4.03;2.63;;;22.40;93.80;;;;;;4920791;28;101842;-68
2022/07/07 09:43:51;;;;;;;8.02;2.42;;;22.50;92.70;;;;;;4938029;28;98899;-68
2022/07/07 09:46:19;;;;;;;4.32;1.92;;;22.60;92.30;;;;;;4955683;28;98498;-68
2022/07/07 09:48:55;;;;;;;4.95;2.30;;;22.60;92.40;;;;;;4955218;28;99239;-68
2022/07/07 09:51:26;;;;;;;3.88;1.85;;;22.60;92.80;;;;;;4955515;28;99148;-68
2022/07/07 09:54:03;;;;;;;4.95;2.10;;;22.20;94.80;;;;;;4955651;28;98593;-68
2022/07/07 09:56:34;;;;;;;3.38;1.10;;;21.90;96.30;;;;;;4938286;28;98886;-68
2022/07/07 09:59:04;;;;;;;3.03;1.00;;;21.40;96.40;;;;;;4954373;28;99844;-68
2022/07/07 10:01:34;;;;;;;1.85;1.10;;;21.10;96.40;;;;;;4937309;28;99804;-68
2022/07/07 10:04:04;;;;;;;2.00;1.20;;;21.10;96.20;;;;;;4954907;28;98638;-68
2022/07/07 10:06:32;;;;;;;4.28;2.22;;;21.00;95.70;;;;;;4937360;28;98724;-68
2022/07/07 10:09:08;;;;;;;3.55;1.48;;;21.20;95.80;;;;;;4954933;28;99750;-68
2022/07/07 10:11:52;;;;;;;4.18;1.42;;;21.50;95.50;;;;;;4937575;28;99736;-68
2022/07/07 10:14:33;;;;;;;4.18;2.20;;;21.90;94.90;;;;;;4954822;28;98533;-68
2022/07/07 10:17:01;;;;;;;5.68;2.17;;;22.00;94.70;;;;;;4955545;28;97729;-68
2022/07/07 10:19:28;;;;;;;6.40;3.13;;;21.90;94.80;;;;;;4954858;28;99343;-68
2022/07/07 10:21:57;;;;;;;4.38;1.75;;;21.50;95.70;;;;;;4920899;28;100263;-68
2022/07/07 10:24:31;;;;;;;4.07;2.00;;;21.20;96.70;;;;;;4954625;28;99744;-68
2022/07/07 10:27:03;;;;;;;3.67;1.70;;;21.10;97.00;;;;;;4954931;28;99350;-68
2022/07/07 10:29:36;;;;;;;4.82;1.30;;;21.10;97.00;;;;;;4954356;28;99537;-68
2022/07/07 10:32:03;;;;;;;2.90;1.45;;;21.00;98.30;;;;;;4920850;28;101661;-68
2022/07/07 10:34:33;;;;;;;1.77;1.55;;;20.70;99.00;;;;;;4954891;28;98571;-68
2022/07/07 10:37:01;;;;;;;3.88;2.25;;;20.60;99.50;;;;;;4937548;28;98573;-69
2022/07/07 10:39:33;;;;;;;6.30;1.95;;;20.50;99.60;;;;;;4936561;28;101771;-69
2022/07/07 10:42:12;;;;;;;6.18;2.10;;;20.30;99.00;;;;;;4954654;28;99136;-68
2022/07/07 10:44:40;;;;;;;6.97;1.90;;;20.40;98.40;;;;;;4936991;28;98540;-68
2022/07/07 10:47:13;;;;;;;7.03;2.42;;;20.60;97.70;;;;;;4954148;28;98601;-69
2022/07/07 10:49:44;;;;;;;3.78;1.45;;;20.80;96.80;;;;;;4953782;28;99961;-69
2022/07/07 10:52:22;;;;;;;6.20;2.38;;;20.80;97.20;;;;;;4921146;28;102233;-68
2022/07/07 10:54:51;;;;;;;7.28;2.17;;;20.40;99.90;;;;;;4936890;28;98590;-69
2022/07/07 10:57:21;;;;;;;10.38;2.50;;;20.20;99.90;;;;;;4954186;28;98585;-68
2022/07/07 11:00:09;;;;;;;7.07;3.08;;;20.10;99.90;;;;;;4935933;28;101844;-68
2022/07/07 11:02:47;;;;;;;9.15;1.75;;;20.10;99.50;;;;;;4937053;28;99121;-68
2022/07/07 11:05:14;;;;;;;9.38;1.95;;;20.10;99.60;;;;;;4954380;28;98615;-68
2022/07/07 11:07:41;;;;;;;8.30;2.05;;;19.90;99.90;;;;;;4937306;28;97786;-68
2022/07/07 11:10:11;;;;;;;10.90;3.97;;;19.70;99.90;;;;;;4953562;28;102639;-68
2022/07/07 11:12:38;;;;;;;8.38;2.28;;;19.60;99.90;;;;;;4936355;28;102271;-68
2022/07/07 11:15:27;;;;;;;12.93;2.78;;;19.50;99.90;;;;;;4953666;28;99900;-69
2022/07/07 11:17:56;;;;;;;7.95;3.28;;;19.60;99.80;;;;;;4954285;28;98443;-68
2022/07/07 11:20:29;;;;;;;15.40;3.00;;;19.50;98.60;;;;;;4953211;28;99571;-68
2022/07/07 11:23:13;;;;;;;12.23;4.07;;;19.80;97.00;;;;;;4953693;28;99150;-68
2022/07/07 11:25:40;;;;;;;;;;;20.10;96.00;;;;;;4920079;28;98695;-68
2022/07/07 11:28:09;;;;;;;16.20;3.13;;;20.10;94.90;;;;;;4937695;28;98650;-69
2022/07/07 11:30:39;;;;;;;7.53;3.25;;;20.40;94.50;;;;;;4919992;28;101960;-68
2022/07/07 11:33:07;;;;;;;8.32;3.63;;;20.80;93.40;;;;;;4936123;28;101501;-68
2022/07/07 11:35:37;;;;;;;10.27;3.53;;;21.10;92.80;;;;;;4936247;28;98583;-68
2022/07/07 11:38:05;;;;;;;13.20;2.60;;;21.50;92.20;;;;;;4920135;28;98629;-68
2022/07/07 11:40:33;;;;;;;8.60;2.33;;;21.80;91.10;;;;;;4952989;28;101234;-69
2022/07/07 11:43:04;;;;;;;7.45;2.50;;;21.80;90.00;;;;;;4936068;28;99879;-68
2022/07/07 11:45:38;;;;;;;9.10;2.63;;;21.90;88.70;;;;;;4936147;28;98533;-68
2022/07/07 11:48:07;;;;;;;8.85;3.60;;;21.90;89.50;;;;;;4953945;28;99334;-69
2022/07/07 11:50:35;;;;;;;6.85;2.25;;;22.00;88.10;;;;;;4936217;28;99401;-69
2022/07/07 11:53:04;;;;;;;5.72;1.55;;;21.90;86.90;;;;;;4952491;28;116392;-68
2022/07/07 11:55:32;;;;;;;9.68;2.22;;;21.90;87.00;;;;;;4953277;28;98502;-68
2022/07/07 11:58:01;;;;;;;9.02;2.30;;;21.70;87.00;;;;;;4953916;28;97820;-68
2022/07/07 12:00:30;;;;;;;8.40;2.28;;;21.60;87.20;;;;;;4952041;28;99746;-68
2022/07/07 12:03:04;;;;;;;12.63;2.30;;;21.60;88.20;;;;;;4953203;28;98936;-68
2022/07/07 12:05:38;;;;;;;7.30;2.05;;;21.70;88.50;;;;;;4953057;28;99318;-68
2022/07/07 12:08:08;;;;;;;9.55;2.42;;;21.60;87.70;;;;;;4935881;28;98511;-68
2022/07/07 12:10:37;;;;;;;9.15;2.30;;;21.60;87.70;;;;;;4935390;28;99507;-68
2022/07/07 12:13:09;;;;;;;9.25;2.60;;;21.70;86.70;;;;;;4935240;28;99391;-69
2022/07/07 12:15:46;;;;;;;8.52;2.78;;;21.90;86.60;;;;;;4935390;28;98536;-68
2022/07/07 12:18:13;;;;;;;9.55;2.42;;;22.00;84.80;;;;;;4953660;28;99432;-68
2022/07/07 12:20:41;;;;;;;8.52;2.13;;;22.10;83.80;;;;;;4935205;28;101867;-68
2022/07/07 12:23:16;;;;;;;11.02;3.28;;;22.10;83.70;;;;;;4935806;28;99006;-69
2022/07/07 12:25:43;;;;;;;9.60;3.42;;;22.10;82.70;;;;;;4935447;28;98715;-69
2022/07/07 12:28:16;;;;;;;7.60;2.00;;;22.10;82.70;;;;;;4953374;28;98577;-69
2022/07/07 12:30:56;;;;;;;10.07;1.98;;;22.00;82.40;;;;;;4920256;28;102620;-69
2022/07/07 12:33:33;;;;;;;11.48;2.30;;;22.10;83.10;;;;;;4963735;28;99807;-68
2022/07/07 12:36:17;;;;;;;9.18;2.17;;;21.90;82.20;;;;;;4973033;28;99090;-68
2022/07/07 12:38:48;;;;;;;9.18;2.60;;;22.10;80.60;;;;;;4954679;28;98891;-69
2022/07/07 12:41:37;;;;;;;6.13;2.42;;;22.20;81.90;;;;;;4972468;28;99343;-69
2022/07/07 12:44:42;;;;;;;6.47;1.90;;;22.40;81.40;;;;;;4972280;28;98878;-69
2022/07/07 12:47:29;;;;;;;7.95;1.90;;;22.20;80.10;;;;;;4895526;28;98743;-69
2022/07/07 12:49:57;;;;;;;7.68;3.28;;;21.90;81.00;;;;;;4912462;28;97968;-68
2022/07/07 12:52:25;;;;;;;7.55;2.28;;;22.00;82.00;;;;;;4949067;28;99761;-69
2022/07/07 12:54:55;;;;;;;8.32;2.10;;;22.20;80.90;;;;;;4954461;28;99018;-69